RJSH(METAR)
08/23 01:00
METAR RJSH 221600Z VRB01KT 9999 FEW020 SCT040 24/22 Q1007 RMK 1CU020
4CU040 A2976=
戻る
トップページへ戻る
IMOC Co,.Ltd.